Time;durP1;ratioP1;P1;durP2;ratioP2;P2;SDS_P1;SDS_P2;PMS_P1;PMS_P2;Temp;Humidity;BMP_temperature;BMP_pressure;BME280_temperature;BME280_humidity;BME280_pressure;Samples;Min_cycle;Max_cycle;Signal;HPM_P1;HPM_P2
2022/06/17 00:02:09;;;;;;;6.57;3.00;;;;;;;;;;5080220;28;20078;-87
2022/06/17 00:04:34;;;;;;;5.43;3.35;;;;;;;;;;5078236;28;20032;-87
2022/06/17 00:07:06;;;;;;;5.22;3.20;;;;;;;;;;5079171;28;20093;-87
2022/06/17 00:09:34;;;;;;;5.20;3.30;;;;;;;;;;5077141;28;20527;-87
2022/06/17 00:11:59;;;;;;;3.67;2.70;;;;;;;;;;5077024;28;20037;-85
2022/06/17 00:14:31;;;;;;;9.00;3.28;;;;;;;;;;5076366;28;20131;-87
2022/06/17 00:17:09;;;;;;;5.93;3.15;;;;;;;;;;5076350;28;20037;-86
2022/06/17 00:19:35;;;;;;;6.20;3.00;;;;;;;;;;5075281;28;20120;-87
2022/06/17 00:22:01;;;;;;;5.88;3.40;;;;;;;;;;5076332;28;20472;-85
2022/06/17 00:24:30;;;;;;;6.78;3.10;;;;;;;;;;5089748;22;20106;-87
2022/06/17 00:26:56;;;;;;;8.55;3.33;;;;;;;;;;5075095;28;20090;-86
2022/06/17 00:29:26;;;;;;;4.20;3.17;;;;;;;;;;5075280;28;20021;-87
2022/06/17 00:31:52;;;;;;;6.18;3.15;;;;;;;;;;5074878;28;20566;-86
2022/06/17 00:34:18;;;;;;;7.28;3.42;;;;;;;;;;5075278;28;20033;-86
2022/06/17 00:36:45;;;;;;;5.97;3.22;;;;;;;;;;5076557;28;20032;-86
2022/06/17 00:39:20;;;;;;;5.72;3.30;;;;;;;;;;5058388;28;20043;-86
2022/06/17 00:41:53;;;;;;;6.53;3.55;;;;;;;;;;5074440;28;20048;-86
2022/06/17 00:44:39;;;;;;;7.85;3.35;;;;;;;;;;5056995;28;20037;-86
2022/06/17 00:47:29;;;;;;;5.18;3.22;;;;;;;;;;5074099;28;20049;-86
2022/06/17 00:49:59;;;;;;;5.22;2.97;;;;;;;;;;5076022;28;20040;-86
2022/06/17 00:52:36;;;;;;;4.32;3.45;;;;;;;;;;5074640;28;20036;-86
2022/06/17 00:55:10;;;;;;;8.70;3.50;;;;;;;;;;5075257;28;20040;-86
2022/06/17 00:57:39;;;;;;;8.57;3.42;;;;;;;;;;5073975;28;20408;-86
2022/06/17 01:00:14;;;;;;;7.20;3.30;;;;;;;;;;5075435;28;20057;-86
2022/06/17 01:02:47;;;;;;;11.45;3.75;;;;;;;;;;5074741;28;20040;-86
2022/06/17 01:05:16;;;;;;;6.53;3.40;;;;;;;;;;5073203;28;20070;-86
2022/06/17 01:07:58;;;;;;;5.32;3.65;;;;;;;;;;5074219;28;20021;-86
2022/06/17 01:10:25;;;;;;;5.22;3.20;;;;;;;;;;5057603;28;20038;-86
2022/06/17 01:12:54;;;;;;;4.40;3.15;;;;;;;;;;5074333;28;20036;-86
2022/06/17 01:15:23;;;;;;;6.28;3.78;;;;;;;;;;5056932;28;20511;-86
2022/06/17 01:17:52;;;;;;;6.47;3.28;;;;;;;;;;5074296;28;20078;-86
2022/06/17 01:20:19;;;;;;;6.78;3.65;;;;;;;;;;5057457;28;20492;-86
2022/06/17 01:22:49;;;;;;;5.20;3.25;;;;;;;;;;5075469;28;20067;-86
2022/06/17 01:25:47;;;;;;;4.43;3.40;;;;;;;;;;5073070;28;20041;-86
2022/06/17 01:28:17;;;;;;;10.48;3.45;;;;;;;;;;5070246;28;20075;-86
2022/06/17 01:30:45;;;;;;;8.45;3.80;;;;;;;;;;5074180;28;20028;-86
2022/06/17 01:33:17;;;;;;;6.32;3.45;;;;;;;;;;5073911;28;20072;-86
2022/06/17 01:35:46;;;;;;;4.28;3.58;;;;;;;;;;5073101;28;20052;-86
2022/06/17 01:38:12;;;;;;;7.18;3.40;;;;;;;;;;5074891;28;20047;-86
2022/06/17 01:40:38;;;;;;;5.38;3.45;;;;;;;;;;5073205;28;20473;-86
2022/06/17 01:43:08;;;;;;;6.35;3.20;;;;;;;;;;5073227;28;20078;-86
2022/06/17 01:45:36;;;;;;;6.03;3.28;;;;;;;;;;5072724;28;20033;-86
2022/06/17 01:48:02;;;;;;;4.78;3.13;;;;;;;;;;5073607;28;20051;-86
2022/06/17 01:50:30;;;;;;;5.10;3.30;;;;;;;;;;5074631;28;20032;-86
2022/06/17 01:53:00;;;;;;;4.95;3.25;;;;;;;;;;5073448;28;20441;-86
2022/06/17 01:55:38;;;;;;;5.68;3.30;;;;;;;;;;5072730;28;20090;-86
2022/06/17 01:58:08;;;;;;;5.72;3.15;;;;;;;;;;5073854;28;20028;-86
2022/06/17 02:00:36;;;;;;;5.88;3.40;;;;;;;;;;5073961;28;20043;-86
2022/06/17 02:03:13;;;;;;;6.50;3.60;;;;;;;;;;5073309;28;20077;-86
2022/06/17 02:05:43;;;;;;;7.57;3.60;;;;;;;;;;5055919;28;20158;-86
2022/06/17 02:08:11;;;;;;;5.13;3.20;;;;;;;;;;5073811;28;20119;-86
2022/06/17 02:10:40;;;;;;;6.97;3.30;;;;;;;;;;5074728;28;20121;-86
2022/06/17 02:13:08;;;;;;;7.28;3.40;;;;;;;;;;5056890;28;20558;-86
2022/06/17 02:15:52;;;;;;;4.50;3.22;;;;;;;;;;5072273;28;20067;-86
2022/06/17 02:18:50;;;;;;;5.15;3.50;;;;;;;;;;5051672;28;20096;-86
2022/06/17 02:21:35;;;;;;;6.80;3.70;;;;;;;;;;5072950;28;20048;-86
2022/06/17 02:24:03;;;;;;;5.88;3.40;;;;;;;;;;5076198;28;20039;-86
2022/06/17 02:26:32;;;;;;;4.97;3.20;;;;;;;;;;5073091;28;20115;-86
2022/06/17 02:28:58;;;;;;;6.90;3.40;;;;;;;;;;5073710;28;20499;-86
2022/06/17 02:31:24;;;;;;;8.23;3.92;;;;;;;;;;5073362;28;20483;-86
2022/06/17 02:33:51;;;;;;;4.57;3.38;;;;;;;;;;5073883;28;20098;-85
2022/06/17 02:36:34;;;;;;;5.85;3.50;;;;;;;;;;5073309;28;20028;-86
2022/06/17 02:39:01;;;;;;;5.38;3.15;;;;;;;;;;5076006;28;20111;-86
2022/06/17 02:41:28;;;;;;;4.65;3.05;;;;;;;;;;5077700;28;20068;-86
2022/06/17 02:44:19;;;;;;;8.57;3.63;;;;;;;;;;5079050;28;20043;-85
2022/06/17 02:46:46;;;;;;;4.55;3.42;;;;;;;;;;5060626;28;20520;-86
2022/06/17 02:49:18;;;;;;;6.13;3.90;;;;;;;;;;5076559;28;20033;-86
2022/06/17 02:51:44;;;;;;;5.90;3.28;;;;;;;;;;5077644;28;20043;-86
2022/06/17 02:54:16;;;;;;;6.53;3.35;;;;;;;;;;5076546;28;20060;-86
2022/06/17 02:56:47;;;;;;;6.03;3.40;;;;;;;;;;5077028;28;20040;-86
2022/06/17 02:59:17;;;;;;;6.32;3.42;;;;;;;;;;5078117;28;20033;-86
2022/06/17 03:01:46;;;;;;;6.28;3.20;;;;;;;;;;5076896;28;20512;-86
2022/06/17 03:04:28;;;;;;;4.47;3.08;;;;;;;;;;5075922;28;20032;-85
2022/06/17 03:06:54;;;;;;;6.25;3.38;;;;;;;;;;5076139;28;20032;-86
2022/06/17 03:09:23;;;;;;;7.80;3.60;;;;;;;;;;5076601;28;20131;-86
2022/06/17 03:11:56;;;;;;;5.60;3.33;;;;;;;;;;5076826;28;20070;-85
2022/06/17 03:14:25;;;;;;;4.80;3.33;;;;;;;;;;5075521;28;20550;-86
2022/06/17 03:16:57;;;;;;;6.82;3.25;;;;;;;;;;5076793;28;20612;-86
2022/06/17 03:19:25;;;;;;;7.32;3.88;;;;;;;;;;5076488;28;20037;-86
2022/06/17 03:21:51;;;;;;;4.28;3.15;;;;;;;;;;5062054;28;20123;-85
2022/06/17 03:24:24;;;;;;;4.72;3.40;;;;;;;;;;5075156;28;20201;-85
2022/06/17 03:26:56;;;;;;;5.45;3.53;;;;;;;;;;5075777;28;20059;-86
2022/06/17 03:29:23;;;;;;;4.53;3.40;;;;;;;;;;5077346;28;20078;-86
2022/06/17 03:32:11;;;;;;;6.80;3.42;;;;;;;;;;5075699;28;20063;-86
2022/06/17 03:34:43;;;;;;;7.68;3.28;;;;;;;;;;5060284;28;20078;-85
2022/06/17 03:37:24;;;;;;;4.65;3.65;;;;;;;;;;5076924;28;20032;-85
2022/06/17 03:39:57;;;;;;;6.88;3.83;;;;;;;;;;5075269;28;20508;-85
2022/06/17 03:42:35;;;;;;;8.13;3.60;;;;;;;;;;5075922;28;20075;-85
2022/06/17 03:45:17;;;;;;;6.45;3.45;;;;;;;;;;5075037;28;20056;-86
2022/06/17 03:47:48;;;;;;;4.05;3.22;;;;;;;;;;5075546;28;20500;-86
2022/06/17 03:50:26;;;;;;;5.18;3.40;;;;;;;;;;5074859;28;20028;-86
2022/06/17 03:52:58;;;;;;;5.47;3.70;;;;;;;;;;5058965;28;20404;-86
2022/06/17 03:55:25;;;;;;;6.65;3.60;;;;;;;;;;5075342;28;20381;-86
2022/06/17 03:57:54;;;;;;;6.75;3.70;;;;;;;;;;5058417;28;20032;-86
2022/06/17 04:00:49;;;;;;;6.90;3.60;;;;;;;;;;5075423;28;20097;-86
2022/06/17 04:03:24;;;;;;;5.25;3.53;;;;;;;;;;5075555;28;20028;-86
2022/06/17 04:06:00;;;;;;;5.55;3.30;;;;;;;;;;5074679;28;20032;-85
2022/06/17 04:08:27;;;;;;;6.45;3.30;;;;;;;;;;5076306;28;20043;-86
2022/06/17 04:10:53;;;;;;;7.03;3.33;;;;;;;;;;5075142;28;20417;-86
2022/06/17 04:13:27;;;;;;;6.45;3.58;;;;;;;;;;5075651;28;20550;-85
2022/06/17 04:16:23;;;;;;;4.70;3.50;;;;;;;;;;5075059;28;20040;-86
2022/06/17 04:18:49;;;;;;;7.10;3.67;;;;;;;;;;5074661;28;20588;-85
2022/06/17 04:21:15;;;;;;;5.15;3.70;;;;;;;;;;5074766;28;20060;-85
2022/06/17 04:23:47;;;;;;;6.22;3.70;;;;;;;;;;5074655;28;20029;-86
2022/06/17 04:26:34;;;;;;;8.35;3.85;;;;;;;;;;5075592;28;20085;-86
2022/06/17 04:29:05;;;;;;;;;;;;;;;;;;5075261;28;20040;-86
2022/06/17 04:31:34;;;;;;;6.82;3.72;;;;;;;;;;5074511;28;19916;-85
2022/06/17 04:34:15;;;;;;;6.22;3.35;;;;;;;;;;5082169;28;20036;-85
2022/06/17 04:37:05;;;;;;;;;;;;;;;;;;5059149;28;20040;-85
2022/06/17 04:39:56;;;;;;;4.97;3.60;;;;;;;;;;5079052;28;19939;-85
2022/06/17 04:42:33;;;;;;;5.43;3.40;;;;;;;;;;5073885;28;20041;-86
2022/06/17 04:44:59;;;;;;;6.38;4.00;;;;;;;;;;5056797;28;20086;-86
2022/06/17 04:47:25;;;;;;;7.13;3.65;;;;;;;;;;5075986;28;20028;-86
2022/06/17 04:50:13;;;;;;;4.22;3.42;;;;;;;;;;5074200;28;20378;-86
2022/06/17 04:52:47;;;;;;;6.28;3.95;;;;;;;;;;5075418;28;20050;-86
2022/06/17 04:55:29;;;;;;;7.45;3.90;;;;;;;;;;5085961;28;20037;-86
2022/06/17 04:58:13;;;;;;;6.75;3.72;;;;;;;;;;5074774;28;20032;-85
2022/06/17 05:00:44;;;;;;;5.32;3.90;;;;;;;;;;5074493;28;20127;-86
2022/06/17 05:03:10;;;;;;;4.95;3.65;;;;;;;;;;5073883;28;20046;-86
2022/06/17 05:05:50;;;;;;;5.22;3.58;;;;;;;;;;5078235;28;20032;-86
2022/06/17 05:08:30;;;;;;;7.32;3.85;;;;;;;;;;5079055;28;20073;-86
2022/06/17 05:11:01;;;;;;;5.55;3.67;;;;;;;;;;5074687;28;20118;-86
2022/06/17 05:14:00;;;;;;;3.70;3.20;;;;;;;;;;5074784;28;20039;-86
2022/06/17 05:16:26;;;;;;;6.28;3.70;;;;;;;;;;5073958;28;20063;-86
2022/06/17 05:18:52;;;;;;;6.50;3.90;;;;;;;;;;5075194;28;20032;-86
2022/06/17 05:21:22;;;;;;;5.30;3.75;;;;;;;;;;5073650;28;20040;-87
2022/06/17 05:23:54;;;;;;;8.23;4.20;;;;;;;;;;5057808;28;20947;-85
2022/06/17 05:26:20;;;;;;;6.40;3.58;;;;;;;;;;5073384;28;20061;-85
2022/06/17 05:28:46;;;;;;;6.53;3.58;;;;;;;;;;5057219;28;20111;-86
2022/06/17 05:31:18;;;;;;;6.45;3.63;;;;;;;;;;5073235;28;20449;-86
2022/06/17 05:33:50;;;;;;;5.07;3.40;;;;;;;;;;5072760;28;20029;-85
2022/06/17 05:36:16;;;;;;;4.50;3.53;;;;;;;;;;5072936;28;20042;-86
2022/06/17 05:38:43;;;;;;;6.93;3.30;;;;;;;;;;5073113;28;20024;-86
2022/06/17 05:41:17;;;;;;;5.32;3.20;;;;;;;;;;5073377;28;20029;-86
2022/06/17 05:43:43;;;;;;;5.05;3.38;;;;;;;;;;5072819;28;20556;-87
2022/06/17 05:46:17;;;;;;;4.60;3.30;;;;;;;;;;5072075;28;20024;-86
2022/06/17 05:48:54;;;;;;;6.25;3.53;;;;;;;;;;5071793;28;20362;-86
2022/06/17 05:51:38;;;;;;;5.85;3.25;;;;;;;;;;5073194;28;20110;-86
2022/06/17 05:54:21;;;;;;;4.93;3.10;;;;;;;;;;5070546;28;20519;-86
2022/06/17 05:56:59;;;;;;;5.95;3.47;;;;;;;;;;5072867;28;20036;-86
2022/06/17 05:59:24;;;;;;;6.38;3.05;;;;;;;;;;5071810;28;20115;-86
2022/06/17 06:01:51;;;;;;;5.50;3.30;;;;;;;;;;5073046;28;20056;-86
2022/06/17 06:04:33;;;;;;;5.57;3.15;;;;;;;;;;5073118;28;20119;-86
2022/06/17 06:06:59;;;;;;;5.22;3.20;;;;;;;;;;5074175;28;20077;-86
2022/06/17 06:09:28;;;;;;;9.13;3.50;;;;;;;;;;5073779;28;20067;-87
2022/06/17 06:11:53;;;;;;;7.03;3.33;;;;;;;;;;5074175;28;20032;-86
2022/06/17 06:14:19;;;;;;;5.15;3.10;;;;;;;;;;5075412;28;20032;-87
2022/06/17 06:16:45;;;;;;;4.68;3.10;;;;;;;;;;5076926;28;20400;-86
2022/06/17 06:19:10;;;;;;;7.32;3.25;;;;;;;;;;5077845;28;20063;-88
2022/06/17 06:21:36;;;;;;;5.35;3.20;;;;;;;;;;5080801;28;20029;-87
2022/06/17 06:24:02;;;;;;;4.15;3.08;;;;;;;;;;5080715;28;20093;-86
2022/06/17 06:26:32;;;;;;;6.28;3.50;;;;;;;;;;5080199;28;20036;-87
2022/06/17 06:29:13;;;;;;;5.85;2.90;;;;;;;;;;5080491;28;20086;-87
2022/06/17 06:31:39;;;;;;;5.78;3.10;;;;;;;;;;5079245;28;20033;-89
2022/06/17 06:34:15;;;;;;;6.88;3.15;;;;;;;;;;5079015;28;20374;-88
2022/06/17 06:36:43;;;;;;;3.78;2.88;;;;;;;;;;5079497;28;20063;-88
2022/06/17 06:39:09;;;;;;;6.47;2.75;;;;;;;;;;5079069;28;20062;-90
2022/06/17 06:41:35;;;;;;;5.05;2.92;;;;;;;;;;5080046;28;20036;-88
2022/06/17 06:44:01;;;;;;;5.55;3.20;;;;;;;;;;5062627;28;20412;-88
2022/06/17 06:46:45;;;;;;;7.03;3.00;;;;;;;;;;5082099;28;20048;-88
2022/06/17 06:49:23;;;;;;;6.47;3.10;;;;;;;;;;5080459;28;20029;-89
2022/06/17 06:51:51;;;;;;;8.98;3.15;;;;;;;;;;5081252;28;20039;-88
2022/06/17 06:54:16;;;;;;;6.82;3.13;;;;;;;;;;5081508;28;20064;-88
2022/06/17 06:56:42;;;;;;;5.40;2.85;;;;;;;;;;5086978;28;20104;-86
2022/06/17 06:59:10;;;;;;;8.10;3.08;;;;;;;;;;5083900;28;20032;-87
2022/06/17 07:01:35;;;;;;;4.57;2.90;;;;;;;;;;5084750;28;20036;-87
2022/06/17 07:04:01;;;;;;;5.53;3.17;;;;;;;;;;5082761;28;20390;-89
2022/06/17 07:06:27;;;;;;;6.20;2.95;;;;;;;;;;5083932;28;20128;-85
2022/06/17 07:08:52;;;;;;;6.15;2.78;;;;;;;;;;5085343;28;20082;-85
2022/06/17 07:11:18;;;;;;;5.00;3.00;;;;;;;;;;5086966;28;20046;-87
2022/06/17 07:13:43;;;;;;;6.43;2.92;;;;;;;;;;5086046;28;20037;-88
2022/06/17 07:16:11;;;;;;;4.50;2.72;;;;;;;;;;5085854;28;20528;-86
2022/06/17 07:18:38;;;;;;;6.00;3.08;;;;;;;;;;5087378;28;20455;-86
2022/06/17 07:21:08;;;;;;;5.65;3.10;;;;;;;;;;5088858;28;20036;-86
2022/06/17 07:23:36;;;;;;;4.97;2.97;;;;;;;;;;5086453;28;20040;-87
2022/06/17 07:26:09;;;;;;;7.65;3.28;;;;;;;;;;5085288;28;20016;-88
2022/06/17 07:28:35;;;;;;;7.28;3.05;;;;;;;;;;5085787;28;20041;-91
2022/06/17 07:31:00;;;;;;;4.72;3.00;;;;;;;;;;5083823;28;20040;-86
2022/06/17 07:33:30;;;;;;;4.32;3.03;;;;;;;;;;5085545;28;20062;-86
2022/06/17 07:35:59;;;;;;;8.50;3.20;;;;;;;;;;5084199;28;20443;-86
2022/06/17 07:41:16;;;;;;;6.78;3.22;;;;;;;;;;5082488;28;20090;-89
2022/06/17 07:43:42;;;;;;;4.65;3.10;;;;;;;;;;5083680;28;20036;-86
2022/06/17 07:46:08;;;;;;;6.13;3.00;;;;;;;;;;5081872;28;20032;-86
2022/06/17 07:48:34;;;;;;;5.28;3.20;;;;;;;;;;5079778;28;20045;-85
2022/06/17 07:51:01;;;;;;;7.22;3.50;;;;;;;;;;5059589;28;20052;-84
2022/06/17 07:53:30;;;;;;;6.15;3.00;;;;;;;;;;5079641;28;20039;-84
2022/06/17 07:55:58;;;;;;;4.15;2.85;;;;;;;;;;5082092;28;20028;-87
2022/06/17 07:58:23;;;;;;;7.78;3.17;;;;;;;;;;5078388;28;20032;-88
2022/06/17 08:00:49;;;;;;;6.38;3.03;;;;;;;;;;5077905;28;20436;-87
2022/06/17 08:03:19;;;;;;;7.28;2.83;;;;;;;;;;5078150;28;20072;-87
2022/06/17 08:05:50;;;;;;;5.43;3.50;;;;;;;;;;5075249;28;20028;-87
2022/06/17 08:08:21;;;;;;;7.00;3.22;;;;;;;;;;5076513;28;20044;-87
2022/06/17 08:10:55;;;;;;;6.28;3.60;;;;;;;;;;5077700;28;20043;-86
2022/06/17 08:13:22;;;;;;;6.00;3.22;;;;;;;;;;5077441;28;20036;-86
2022/06/17 08:15:51;;;;;;;6.35;3.22;;;;;;;;;;5076696;28;20039;-87
2022/06/17 08:18:17;;;;;;;4.50;3.10;;;;;;;;;;5076644;28;20498;-87
2022/06/17 08:20:43;;;;;;;5.57;3.03;;;;;;;;;;5077477;28;20507;-87
2022/06/17 08:23:09;;;;;;;7.10;3.25;;;;;;;;;;5076781;28;20110;-87
2022/06/17 08:25:35;;;;;;;5.30;2.70;;;;;;;;;;5075578;28;20424;-88
2022/06/17 08:28:04;;;;;;;6.32;3.17;;;;;;;;;;5076093;28;20086;-87
2022/06/17 08:30:39;;;;;;;8.07;2.78;;;;;;;;;;5076453;28;20405;-87
2022/06/17 08:33:05;;;;;;;4.65;2.80;;;;;;;;;;5077851;28;20035;-89
2022/06/17 08:35:41;;;;;;;4.82;2.60;;;;;;;;;;5076712;28;20032;-85
2022/06/17 08:38:12;;;;;;;3.38;2.50;;;;;;;;;;5076231;28;20036;-85
2022/06/17 08:40:53;;;;;;;8.25;2.83;;;;;;;;;;5075755;28;20029;-87
2022/06/17 08:43:31;;;;;;;6.25;2.42;;;;;;;;;;5077104;28;20064;-87
2022/06/17 08:46:33;;;;;;;5.72;3.03;;;;;;;;;;5076483;28;20063;-86
2022/06/17 08:49:35;;;;;;;5.28;2.60;;;;;;;;;;5077434;28;20481;-87
2022/06/17 08:52:42;;;;;;;3.83;2.60;;;;;;;;;;5077838;28;20070;-86
2022/06/17 08:55:19;;;;;;;7.00;2.80;;;;;;;;;;5068139;28;20073;-84
2022/06/17 08:57:54;;;;;;;5.00;2.97;;;;;;;;;;5077144;28;20401;-86
2022/06/17 09:00:21;;;;;;;4.43;2.75;;;;;;;;;;5076628;28;20028;-87
2022/06/17 09:03:05;;;;;;;6.75;3.00;;;;;;;;;;5077172;28;20040;-87
2022/06/17 09:05:50;;;;;;;2.78;2.45;;;;;;;;;;5074680;28;20146;-86
2022/06/17 09:08:28;;;;;;;5.18;2.88;;;;;;;;;;5075732;28;20124;-86
2022/06/17 09:11:16;;;;;;;5.65;2.90;;;;;;;;;;5077206;28;20028;-87
2022/06/17 09:14:01;;;;;;;6.30;2.58;;;;;;;;;;5077144;28;20131;-87
2022/06/17 09:16:51;;;;;;;4.63;2.70;;;;;;;;;;5077530;28;20119;-87
2022/06/17 09:19:25;;;;;;;5.78;2.53;;;;;;;;;;5077299;28;20032;-87
2022/06/17 09:21:52;;;;;;;;;;;;;;;;;;5077629;28;20067;-87
2022/06/17 09:24:25;;;;;;;4.28;2.95;;;;;;;;;;5074709;28;19923;-87
2022/06/17 09:27:00;;;;;;;4.78;2.67;;;;;;;;;;5077279;28;20119;-86
2022/06/17 09:29:56;;;;;;;6.78;2.60;;;;;;;;;;5076956;28;20025;-88
2022/06/17 09:32:28;;;;;;;3.05;2.50;;;;;;;;;;5075444;28;20032;-86
2022/06/17 09:35:12;;;;;;;4.22;2.22;;;;;;;;;;5075424;28;20032;-88
2022/06/17 09:37:46;;;;;;;3.42;2.40;;;;;;;;;;5075909;28;20473;-87
2022/06/17 09:40:14;;;;;;;6.05;2.65;;;;;;;;;;5077367;28;20037;-87
2022/06/17 09:43:12;;;;;;;5.22;2.78;;;;;;;;;;5077314;28;20028;-87
2022/06/17 09:45:40;;;;;;;4.82;2.53;;;;;;;;;;5076687;28;20131;-87
2022/06/17 09:48:33;;;;;;;3.40;2.50;;;;;;;;;;5078449;28;20036;-87
2022/06/17 09:51:06;;;;;;;6.07;2.80;;;;;;;;;;5082201;28;20092;-87
2022/06/17 09:53:35;;;;;;;4.53;2.60;;;;;;;;;;5083161;28;20058;-87
2022/06/17 09:56:20;;;;;;;4.85;2.58;;;;;;;;;;5082914;28;20051;-87
2022/06/17 09:58:49;;;;;;;3.38;2.50;;;;;;;;;;5083538;28;20453;-87
2022/06/17 10:01:16;;;;;;;5.95;2.88;;;;;;;;;;5082934;28;20468;-87
2022/06/17 10:03:41;;;;;;;7.07;2.50;;;;;;;;;;5081907;28;20040;-87
2022/06/17 10:06:34;;;;;;;4.32;2.53;;;;;;;;;;5082111;28;20040;-87
2022/06/17 10:09:30;;;;;;;4.07;2.78;;;;;;;;;;5083260;28;20035;-87
2022/06/17 10:12:31;;;;;;;3.35;2.50;;;;;;;;;;5082587;28;20047;-87
2022/06/17 10:15:24;;;;;;;5.38;2.47;;;;;;;;;;5071765;28;20040;-87
2022/06/17 10:18:33;;;;;;;4.38;2.58;;;;;;;;;;5083510;28;20044;-87
2022/06/17 10:21:21;;;;;;;6.40;2.25;;;;;;;;;;5083517;28;20063;-87
2022/06/17 10:24:03;;;;;;;7.57;2.60;;;;;;;;;;5083249;28;20052;-87
2022/06/17 10:26:41;;;;;;;3.72;2.40;;;;;;;;;;5082143;28;20032;-87
2022/06/17 10:29:09;;;;;;;3.47;2.40;;;;;;;;;;5082962;28;20037;-87
2022/06/17 10:31:39;;;;;;;4.78;2.47;;;;;;;;;;5083289;28;20036;-87
2022/06/17 10:34:12;;;;;;;3.78;2.47;;;;;;;;;;5082831;28;20040;-89
2022/06/17 10:36:38;;;;;;;4.35;2.40;;;;;;;;;;5083594;28;20037;-87
2022/06/17 10:39:06;;;;;;;3.30;2.30;;;;;;;;;;5082608;28;20028;-89
2022/06/17 10:41:31;;;;;;;5.10;2.60;;;;;;;;;;5083490;28;20028;-86
2022/06/17 10:43:57;;;;;;;5.82;2.78;;;;;;;;;;5082786;28;20041;-87
2022/06/17 10:46:28;;;;;;;3.90;2.38;;;;;;;;;;5082381;28;20066;-85
2022/06/17 10:48:58;;;;;;;5.00;2.60;;;;;;;;;;5083015;28;20040;-87
2022/06/17 10:51:26;;;;;;;4.68;2.90;;;;;;;;;;5083389;28;20036;-86
2022/06/17 10:53:59;;;;;;;5.10;2.78;;;;;;;;;;5082087;28;20131;-87
2022/06/17 10:56:33;;;;;;;3.25;2.30;;;;;;;;;;5082531;28;20040;-87
2022/06/17 10:59:06;;;;;;;4.22;2.40;;;;;;;;;;5084089;28;20033;-87
2022/06/17 11:02:02;;;;;;;4.35;2.67;;;;;;;;;;5080714;28;20047;-86
2022/06/17 11:04:34;;;;;;;4.85;2.70;;;;;;;;;;5066314;28;20044;-87
2022/06/17 11:07:15;;;;;;;4.13;2.70;;;;;;;;;;5079509;28;20040;-87
2022/06/17 11:09:46;;;;;;;4.90;2.63;;;;;;;;;;5080026;28;20036;-87
2022/06/17 11:12:22;;;;;;;4.78;2.30;;;;;;;;;;5080186;28;20539;-87
2022/06/17 11:14:47;;;;;;;4.55;2.50;;;;;;;;;;5079756;28;20552;-87
2022/06/17 11:17:38;;;;;;;3.63;2.28;;;;;;;;;;5080432;28;20071;-87
2022/06/17 11:20:16;;;;;;;5.10;2.30;;;;;;;;;;5079696;28;20058;-87
2022/06/17 11:22:52;;;;;;;4.40;2.22;;;;;;;;;;5078064;28;20044;-87
2022/06/17 11:25:23;;;;;;;5.20;2.20;;;;;;;;;;5077496;28;20068;-87
2022/06/17 11:27:57;;;;;;;4.60;2.20;;;;;;;;;;5078900;28;20040;-87
2022/06/17 11:30:23;;;;;;;6.72;2.28;;;;;;;;;;5080228;28;20036;-89
2022/06/17 11:32:52;;;;;;;4.53;2.30;;;;;;;;;;5078552;28;20029;-87
2022/06/17 11:35:21;;;;;;;3.28;2.38;;;;;;;;;;5078826;28;20028;-87
2022/06/17 11:37:49;;;;;;;2.95;2.13;;;;;;;;;;5079563;28;20065;-87
2022/06/17 11:40:21;;;;;;;3.53;2.13;;;;;;;;;;5078107;28;20409;-87
2022/06/17 11:42:50;;;;;;;3.80;2.10;;;;;;;;;;5077995;28;20032;-88
2022/06/17 11:45:19;;;;;;;4.45;2.10;;;;;;;;;;5079025;28;20086;-89
2022/06/17 11:47:49;;;;;;;3.95;2.20;;;;;;;;;;5079323;28;20036;-87
2022/06/17 11:50:24;;;;;;;3.78;2.60;;;;;;;;;;5078938;28;20025;-87
2022/06/17 11:52:51;;;;;;;5.07;2.20;;;;;;;;;;5078149;28;20123;-87
2022/06/17 11:55:17;;;;;;;6.57;2.47;;;;;;;;;;5078761;28;20037;-87
2022/06/17 11:57:43;;;;;;;4.07;2.00;;;;;;;;;;5079665;28;20040;-87
2022/06/17 12:00:18;;;;;;;5.95;2.20;;;;;;;;;;5079374;28;20063;-87
2022/06/17 12:02:58;;;;;;;3.63;2.20;;;;;;;;;;5078270;28;20032;-87
2022/06/17 12:05:30;;;;;;;4.55;2.08;;;;;;;;;;5079840;28;20036;-88
2022/06/17 12:08:07;;;;;;;4.80;2.33;;;;;;;;;;5079341;28;20040;-87
2022/06/17 12:10:35;;;;;;;4.03;2.10;;;;;;;;;;5078848;28;20086;-88
2022/06/17 12:13:08;;;;;;;4.10;2.10;;;;;;;;;;5078246;28;20032;-89
2022/06/17 12:15:43;;;;;;;3.70;2.25;;;;;;;;;;5078273;28;20535;-87
2022/06/17 12:18:18;;;;;;;3.80;2.08;;;;;;;;;;5077589;28;20039;-87
2022/06/17 12:20:55;;;;;;;3.47;2.10;;;;;;;;;;5077196;28;20043;-87
2022/06/17 12:23:29;;;;;;;4.10;2.10;;;;;;;;;;5078057;28;20093;-89
2022/06/17 12:26:03;;;;;;;3.33;2.15;;;;;;;;;;5098387;22;20098;-87
2022/06/17 12:28:35;;;;;;;6.70;2.10;;;;;;;;;;5084505;28;20108;-88
2022/06/17 12:31:07;;;;;;;5.15;2.30;;;;;;;;;;5078914;28;20036;-87
2022/06/17 12:33:48;;;;;;;6.43;2.53;;;;;;;;;;5078673;28;20029;-86
2022/06/17 12:36:22;;;;;;;3.38;2.00;;;;;;;;;;5044213;28;20052;-87
2022/06/17 12:39:09;;;;;;;4.03;2.30;;;;;;;;;;5060039;28;20033;-85
2022/06/17 12:42:04;;;;;;;4.30;2.10;;;;;;;;;;5058220;28;20033;-85
2022/06/17 12:45:01;;;;;;;5.00;2.30;;;;;;;;;;5056906;28;20033;-85
2022/06/17 12:47:27;;;;;;;4.03;2.20;;;;;;;;;;5054711;28;20052;-87
2022/06/17 12:55:49;;;;;;;4.90;2.50;;;;;;;;;;5054953;28;20040;-85
2022/06/17 12:58:30;;;;;;;4.00;2.83;;;;;;;;;;5057555;28;20064;-87
2022/06/17 13:01:03;;;;;;;6.60;2.28;;;;;;;;;;5055817;28;20115;-84
2022/06/17 13:03:56;;;;;;;6.45;2.47;;;;;;;;;;5057060;28;20032;-87
2022/06/17 13:07:04;;;;;;;4.03;2.30;;;;;;;;;;5055483;28;20497;-85
2022/06/17 13:09:41;;;;;;;4.20;2.17;;;;;;;;;;5033389;28;20059;-85
2022/06/17 13:12:34;;;;;;;5.22;2.80;;;;;;;;;;5055470;28;20036;-87
2022/06/17 13:15:05;;;;;;;4.80;2.40;;;;;;;;;;5052949;28;20112;-87
2022/06/17 13:17:31;;;;;;;11.77;2.10;;;;;;;;;;5056199;28;20055;-86
2022/06/17 13:20:09;;;;;;;4.68;2.50;;;;;;;;;;5055078;28;20405;-86
2022/06/17 13:22:49;;;;;;;4.93;2.25;;;;;;;;;;5057586;28;20040;-86
2022/06/17 13:25:34;;;;;;;5.75;2.22;;;;;;;;;;5057333;28;20032;-87
2022/06/17 13:28:09;;;;;;;4.70;2.50;;;;;;;;;;5056974;28;20036;-86
2022/06/17 13:30:45;;;;;;;6.75;2.20;;;;;;;;;;5056625;28;20041;-86
2022/06/17 13:33:22;;;;;;;4.10;2.30;;;;;;;;;;5059151;28;20031;-85
2022/06/17 13:36:15;;;;;;;4.53;2.38;;;;;;;;;;5050537;28;20501;-86
2022/06/17 13:39:02;;;;;;;4.45;2.45;;;;;;;;;;5061459;28;20049;-85
2022/06/17 13:41:37;;;;;;;5.03;2.10;;;;;;;;;;5038279;28;20386;-86
2022/06/17 13:44:21;;;;;;;5.63;2.20;;;;;;;;;;5054478;28;20044;-84
2022/06/17 13:47:14;;;;;;;4.47;2.13;;;;;;;;;;5054270;28;20033;-87
2022/06/17 13:50:11;;;;;;;4.72;2.53;;;;;;;;;;5055770;28;20052;-88
2022/06/17 13:52:51;;;;;;;4.40;2.00;;;;;;;;;;5017903;28;20045;-88
2022/06/17 13:55:28;;;;;;;4.38;2.30;;;;;;;;;;5051482;28;20044;-87
2022/06/17 13:58:08;;;;;;;4.32;2.05;;;;;;;;;;5055295;28;20040;-87
2022/06/17 14:00:48;;;;;;;3.28;2.17;;;;;;;;;;5055898;28;20040;-85
2022/06/17 14:03:17;;;;;;;5.10;2.10;;;;;;;;;;5056558;28;20047;-83
2022/06/17 14:06:03;;;;;;;5.00;2.10;;;;;;;;;;5054005;28;20032;-83
2022/06/17 14:08:53;;;;;;;4.00;2.20;;;;;;;;;;5052891;28;20032;-83
2022/06/17 14:11:34;;;;;;;7.63;2.13;;;;;;;;;;5053902;28;20485;-83
2022/06/17 14:14:20;;;;;;;6.65;2.33;;;;;;;;;;5036334;28;20114;-88
2022/06/17 14:17:10;;;;;;;4.32;2.17;;;;;;;;;;5022869;28;20037;-88
2022/06/17 14:19:44;;;;;;;4.75;2.28;;;;;;;;;;5047372;28;20121;-86
2022/06/17 14:22:19;;;;;;;4.68;2.30;;;;;;;;;;5054682;28;20044;-86
2022/06/17 14:24:44;;;;;;;4.25;2.15;;;;;;;;;;5054296;28;20045;-88
2022/06/17 14:27:10;;;;;;;4.68;2.10;;;;;;;;;;5040789;28;20071;-82
2022/06/17 14:29:37;;;;;;;3.80;2.08;;;;;;;;;;5034596;28;20486;-82
2022/06/17 14:32:17;;;;;;;3.42;2.13;;;;;;;;;;5051595;28;20036;-81
2022/06/17 14:34:50;;;;;;;3.88;2.20;;;;;;;;;;5050917;28;20036;-84
2022/06/17 14:37:37;;;;;;;3.25;1.90;;;;;;;;;;5054590;28;20038;-82
2022/06/17 14:40:28;;;;;;;3.67;2.08;;;;;;;;;;5054636;28;20029;-81
2022/06/17 14:43:17;;;;;;;3.45;2.10;;;;;;;;;;5055598;28;20037;-83
2022/06/17 14:45:48;;;;;;;3.08;2.10;;;;;;;;;;5037275;28;20082;-85
2022/06/17 14:48:17;;;;;;;4.45;2.13;;;;;;;;;;5055238;28;20451;-84
2022/06/17 14:50:50;;;;;;;3.65;1.90;;;;;;;;;;5056280;28;20104;-85
2022/06/17 14:53:26;;;;;;;6.10;1.90;;;;;;;;;;5066044;28;20510;-85
2022/06/17 14:56:21;;;;;;;5.30;2.00;;;;;;;;;;5056097;28;20379;-84
2022/06/17 14:58:48;;;;;;;3.95;1.90;;;;;;;;;;5015839;28;20115;-81
2022/06/17 15:01:33;;;;;;;5.30;2.10;;;;;;;;;;5063464;28;20253;-86
2022/06/17 15:05:00;;;;;;;5.30;2.00;;;;;;;;;;5065330;28;20056;-86
2022/06/17 15:07:30;;;;;;;4.20;1.80;;;;;;;;;;4983444;28;20062;-86
2022/06/17 15:09:58;;;;;;;4.97;2.00;;;;;;;;;;4982796;28;20124;-85
2022/06/17 15:12:28;;;;;;;5.20;1.95;;;;;;;;;;5029218;28;20049;-85
2022/06/17 15:15:03;;;;;;;3.10;1.90;;;;;;;;;;5058097;28;20059;-86
2022/06/17 15:17:33;;;;;;;2.78;2.00;;;;;;;;;;5059595;28;20040;-86
2022/06/17 15:20:01;;;;;;;3.05;1.80;;;;;;;;;;5057504;28;20128;-86
2022/06/17 15:22:31;;;;;;;2.97;1.85;;;;;;;;;;5063901;28;20059;-86
2022/06/17 15:25:11;;;;;;;3.42;2.10;;;;;;;;;;5059363;28;20045;-87
2022/06/17 15:27:41;;;;;;;3.60;1.85;;;;;;;;;;5060639;28;20055;-86
2022/06/17 15:30:15;;;;;;;3.47;1.80;;;;;;;;;;5059965;28;20486;-86
2022/06/17 15:32:43;;;;;;;3.40;1.80;;;;;;;;;;5058444;28;20105;-87
2022/06/17 15:35:25;;;;;;;6.20;1.88;;;;;;;;;;5058462;28;20112;-86